sensor_id;sensor_type;location;lat;lon;timestamp;P1;durP1;ratioP1;P2;durP2;ratioP2
4365;SDS011;2196;47.422;9.656;2024-02-21T00:02:24;2.83;;;1.23;;
4365;SDS011;2196;47.422;9.656;2024-02-21T00:04:51;1.33;;;0.67;;
4365;SDS011;2196;47.422;9.656;2024-02-21T00:07:18;0.90;;;0.90;;
4365;SDS011;2196;47.422;9.656;2024-02-21T00:09:45;1.20;;;0.73;;
4365;SDS011;2196;47.422;9.656;2024-02-21T00:12:12;1.53;;;0.87;;
4365;SDS011;2196;47.422;9.656;2024-02-21T00:14:39;1.10;;;0.70;;
4365;SDS011;2196;47.422;9.656;2024-02-21T00:17:06;0.93;;;0.80;;
4365;SDS011;2196;47.422;9.656;2024-02-21T00:19:35;2.73;;;1.80;;
4365;SDS011;2196;47.422;9.656;2024-02-21T00:22:03;0.43;;;0.43;;
4365;SDS011;2196;47.422;9.656;2024-02-21T00:24:30;2.50;;;0.70;;
4365;SDS011;2196;47.422;9.656;2024-02-21T00:26:57;1.43;;;0.70;;
4365;SDS011;2196;47.422;9.656;2024-02-21T00:29:24;2.10;;;0.57;;
4365;SDS011;2196;47.422;9.656;2024-02-21T00:31:52;1.70;;;0.53;;
4365;SDS011;2196;47.422;9.656;2024-02-21T00:34:19;1.70;;;0.50;;
4365;SDS011;2196;47.422;9.656;2024-02-21T00:36:47;2.70;;;0.63;;
4365;SDS011;2196;47.422;9.656;2024-02-21T00:39:15;1.70;;;0.40;;
4365;SDS011;2196;47.422;9.656;2024-02-21T00:41:42;1.70;;;0.40;;
4365;SDS011;2196;47.422;9.656;2024-02-21T00:44:09;0.93;;;0.93;;
4365;SDS011;2196;47.422;9.656;2024-02-21T00:46:36;1.10;;;0.97;;
4365;SDS011;2196;47.422;9.656;2024-02-21T00:49:03;1.53;;;0.37;;
4365;SDS011;2196;47.422;9.656;2024-02-21T00:51:30;0.50;;;0.50;;
4365;SDS011;2196;47.422;9.656;2024-02-21T00:53:59;0.70;;;0.40;;
4365;SDS011;2196;47.422;9.656;2024-02-21T00:56:26;1.90;;;0.60;;
4365;SDS011;2196;47.422;9.656;2024-02-21T00:58:54;2.30;;;0.60;;
4365;SDS011;2196;47.422;9.656;2024-02-21T01:01:21;1.90;;;0.63;;
4365;SDS011;2196;47.422;9.656;2024-02-21T01:03:49;1.87;;;0.40;;
4365;SDS011;2196;47.422;9.656;2024-02-21T01:06:16;2.30;;;0.40;;
4365;SDS011;2196;47.422;9.656;2024-02-21T01:08:43;1.50;;;0.50;;
4365;SDS011;2196;47.422;9.656;2024-02-21T01:11:11;0.60;;;0.40;;
4365;SDS011;2196;47.422;9.656;2024-02-21T01:13:38;0.30;;;0.20;;
4365;SDS011;2196;47.422;9.656;2024-02-21T01:16:05;0.40;;;0.30;;
4365;SDS011;2196;47.422;9.656;2024-02-21T01:18:32;0.47;;;0.37;;
4365;SDS011;2196;47.422;9.656;2024-02-21T01:20:59;0.27;;;0.27;;
4365;SDS011;2196;47.422;9.656;2024-02-21T01:23:26;1.47;;;0.40;;
4365;SDS011;2196;47.422;9.656;2024-02-21T01:25:53;0.83;;;0.57;;
4365;SDS011;2196;47.422;9.656;2024-02-21T01:28:22;0.80;;;0.43;;
4365;SDS011;2196;47.422;9.656;2024-02-21T01:30:49;1.30;;;1.17;;
4365;SDS011;2196;47.422;9.656;2024-02-21T01:33:17;0.40;;;0.30;;
4365;SDS011;2196;47.422;9.656;2024-02-21T01:35:44;2.20;;;0.60;;
4365;SDS011;2196;47.422;9.656;2024-02-21T01:38:12;1.23;;;0.40;;
4365;SDS011;2196;47.422;9.656;2024-02-21T01:40:39;0.30;;;0.30;;
4365;SDS011;2196;47.422;9.656;2024-02-21T01:43:15;1.00;;;0.43;;
4365;SDS011;2196;47.422;9.656;2024-02-21T01:45:44;1.00;;;0.60;;
4365;SDS011;2196;47.422;9.656;2024-02-21T01:48:15;0.77;;;0.60;;
4365;SDS011;2196;47.422;9.656;2024-02-21T01:50:42;1.27;;;0.60;;
4365;SDS011;2196;47.422;9.656;2024-02-21T01:53:10;0.73;;;0.73;;
4365;SDS011;2196;47.422;9.656;2024-02-21T01:55:42;0.50;;;0.50;;
4365;SDS011;2196;47.422;9.656;2024-02-21T01:58:10;4.17;;;1.23;;
4365;SDS011;2196;47.422;9.656;2024-02-21T02:00:38;1.53;;;0.60;;
4365;SDS011;2196;47.422;9.656;2024-02-21T02:03:10;0.70;;;0.70;;
4365;SDS011;2196;47.422;9.656;2024-02-21T02:05:41;4.10;;;0.70;;
4365;SDS011;2196;47.422;9.656;2024-02-21T02:08:09;0.70;;;0.70;;
4365;SDS011;2196;47.422;9.656;2024-02-21T02:10:37;2.13;;;0.50;;
4365;SDS011;2196;47.422;9.656;2024-02-21T02:13:04;1.10;;;0.80;;
4365;SDS011;2196;47.422;9.656;2024-02-21T02:15:37;3.17;;;0.50;;
4365;SDS011;2196;47.422;9.656;2024-02-21T02:18:04;0.90;;;0.70;;
4365;SDS011;2196;47.422;9.656;2024-02-21T02:20:33;1.20;;;0.40;;
4365;SDS011;2196;47.422;9.656;2024-02-21T02:23:01;0.33;;;0.33;;
4365;SDS011;2196;47.422;9.656;2024-02-21T02:25:33;3.10;;;0.60;;
4365;SDS011;2196;47.422;9.656;2024-02-21T02:28:00;0.50;;;0.40;;
4365;SDS011;2196;47.422;9.656;2024-02-21T02:30:27;0.23;;;0.23;;
4365;SDS011;2196;47.422;9.656;2024-02-21T02:32:54;0.30;;;0.30;;
4365;SDS011;2196;47.422;9.656;2024-02-21T02:35:21;0.40;;;0.30;;
4365;SDS011;2196;47.422;9.656;2024-02-21T02:37:48;0.50;;;0.50;;
4365;SDS011;2196;47.422;9.656;2024-02-21T02:40:15;0.57;;;0.50;;
4365;SDS011;2196;47.422;9.656;2024-02-21T02:42:44;1.13;;;0.90;;
4365;SDS011;2196;47.422;9.656;2024-02-21T02:45:12;0.60;;;0.30;;
4365;SDS011;2196;47.422;9.656;2024-02-21T02:47:39;0.30;;;0.30;;
4365;SDS011;2196;47.422;9.656;2024-02-21T02:50:07;0.77;;;0.30;;
4365;SDS011;2196;47.422;9.656;2024-02-21T02:52:34;0.30;;;0.30;;
4365;SDS011;2196;47.422;9.656;2024-02-21T02:55:01;0.40;;;0.40;;
4365;SDS011;2196;47.422;9.656;2024-02-21T02:57:29;0.30;;;0.30;;
4365;SDS011;2196;47.422;9.656;2024-02-21T03:00:00;1.40;;;0.40;;
4365;SDS011;2196;47.422;9.656;2024-02-21T03:02:31;0.60;;;0.40;;
4365;SDS011;2196;47.422;9.656;2024-02-21T03:04:58;0.20;;;0.20;;
4365;SDS011;2196;47.422;9.656;2024-02-21T03:07:25;0.40;;;0.40;;
4365;SDS011;2196;47.422;9.656;2024-02-21T03:09:52;0.77;;;0.20;;
4365;SDS011;2196;47.422;9.656;2024-02-21T03:12:19;0.50;;;0.40;;
4365;SDS011;2196;47.422;9.656;2024-02-21T03:14:52;0.97;;;0.60;;
4365;SDS011;2196;47.422;9.656;2024-02-21T03:17:20;2.23;;;0.67;;
4365;SDS011;2196;47.422;9.656;2024-02-21T03:19:47;1.07;;;0.60;;
4365;SDS011;2196;47.422;9.656;2024-02-21T03:22:15;0.20;;;0.20;;
4365;SDS011;2196;47.422;9.656;2024-02-21T03:24:42;0.63;;;0.20;;
4365;SDS011;2196;47.422;9.656;2024-02-21T03:27:09;0.60;;;0.50;;
4365;SDS011;2196;47.422;9.656;2024-02-21T03:29:36;0.50;;;0.50;;
4365;SDS011;2196;47.422;9.656;2024-02-21T03:32:03;0.53;;;0.50;;
4365;SDS011;2196;47.422;9.656;2024-02-21T03:34:32;3.70;;;0.60;;
4365;SDS011;2196;47.422;9.656;2024-02-21T03:36:59;0.87;;;0.87;;
4365;SDS011;2196;47.422;9.656;2024-02-21T03:39:26;1.37;;;0.63;;
4365;SDS011;2196;47.422;9.656;2024-02-21T03:41:53;0.60;;;0.40;;
4365;SDS011;2196;47.422;9.656;2024-02-21T03:44:20;0.40;;;0.40;;
4365;SDS011;2196;47.422;9.656;2024-02-21T03:46:47;0.80;;;0.50;;
4365;SDS011;2196;47.422;9.656;2024-02-21T03:49:13;0.40;;;0.40;;
4365;SDS011;2196;47.422;9.656;2024-02-21T03:51:42;2.30;;;0.47;;
4365;SDS011;2196;47.422;9.656;2024-02-21T03:54:09;1.33;;;0.33;;
4365;SDS011;2196;47.422;9.656;2024-02-21T03:56:37;0.30;;;0.30;;
4365;SDS011;2196;47.422;9.656;2024-02-21T03:59:05;0.77;;;0.30;;
4365;SDS011;2196;47.422;9.656;2024-02-21T04:01:32;0.17;;;0.17;;
4365;SDS011;2196;47.422;9.656;2024-02-21T04:03:59;0.63;;;0.10;;
4365;SDS011;2196;47.422;9.656;2024-02-21T04:06:26;0.53;;;0.30;;
4365;SDS011;2196;47.422;9.656;2024-02-21T04:08:55;3.43;;;0.20;;
4365;SDS011;2196;47.422;9.656;2024-02-21T04:11:23;0.17;;;0.17;;
4365;SDS011;2196;47.422;9.656;2024-02-21T04:13:50;3.03;;;0.30;;
4365;SDS011;2196;47.422;9.656;2024-02-21T04:16:17;2.70;;;0.30;;
4365;SDS011;2196;47.422;9.656;2024-02-21T04:18:44;0.30;;;0.20;;
4365;SDS011;2196;47.422;9.656;2024-02-21T04:21:14;1.30;;;0.30;;
4365;SDS011;2196;47.422;9.656;2024-02-21T04:23:42;0.20;;;0.20;;
4365;SDS011;2196;47.422;9.656;2024-02-21T04:26:10;1.03;;;0.30;;
4365;SDS011;2196;47.422;9.656;2024-02-21T04:28:37;4.37;;;0.50;;
4365;SDS011;2196;47.422;9.656;2024-02-21T04:31:04;0.97;;;0.43;;
4365;SDS011;2196;47.422;9.656;2024-02-21T04:33:31;1.17;;;1.07;;
4365;SDS011;2196;47.422;9.656;2024-02-21T04:35:58;0.50;;;0.50;;
4365;SDS011;2196;47.422;9.656;2024-02-21T04:38:26;1.03;;;0.40;;
4365;SDS011;2196;47.422;9.656;2024-02-21T04:40:53;1.23;;;0.40;;
4365;SDS011;2196;47.422;9.656;2024-02-21T04:43:24;4.40;;;1.90;;
4365;SDS011;2196;47.422;9.656;2024-02-21T04:45:51;4.40;;;1.80;;
4365;SDS011;2196;47.422;9.656;2024-02-21T04:48:19;17.83;;;1.40;;
4365;SDS011;2196;47.422;9.656;2024-02-21T04:50:46;1.97;;;0.90;;
4365;SDS011;2196;47.422;9.656;2024-02-21T04:53:13;1.17;;;0.80;;
4365;SDS011;2196;47.422;9.656;2024-02-21T04:55:41;1.33;;;0.30;;
4365;SDS011;2196;47.422;9.656;2024-02-21T04:58:08;0.63;;;0.37;;
4365;SDS011;2196;47.422;9.656;2024-02-21T05:00:36;0.87;;;0.40;;
4365;SDS011;2196;47.422;9.656;2024-02-21T05:03:03;0.57;;;0.47;;
4365;SDS011;2196;47.422;9.656;2024-02-21T05:05:30;0.73;;;0.40;;
4365;SDS011;2196;47.422;9.656;2024-02-21T05:07:57;2.93;;;0.30;;
4365;SDS011;2196;47.422;9.656;2024-02-21T05:10:24;0.63;;;0.20;;
4365;SDS011;2196;47.422;9.656;2024-02-21T05:12:51;1.80;;;0.30;;
4365;SDS011;2196;47.422;9.656;2024-02-21T05:15:18;0.20;;;0.20;;
4365;SDS011;2196;47.422;9.656;2024-02-21T05:17:47;0.43;;;0.30;;
4365;SDS011;2196;47.422;9.656;2024-02-21T05:20:13;1.67;;;1.07;;
4365;SDS011;2196;47.422;9.656;2024-02-21T05:22:41;0.80;;;0.80;;
4365;SDS011;2196;47.422;9.656;2024-02-21T05:25:08;0.47;;;0.47;;
4365;SDS011;2196;47.422;9.656;2024-02-21T05:27:35;1.07;;;1.00;;
4365;SDS011;2196;47.422;9.656;2024-02-21T05:30:04;0.93;;;0.90;;
4365;SDS011;2196;47.422;9.656;2024-02-21T05:32:32;0.93;;;0.50;;
4365;SDS011;2196;47.422;9.656;2024-02-21T05:35:01;1.13;;;0.70;;
4365;SDS011;2196;47.422;9.656;2024-02-21T05:37:28;0.40;;;0.40;;
4365;SDS011;2196;47.422;9.656;2024-02-21T05:39:55;3.20;;;0.67;;
4365;SDS011;2196;47.422;9.656;2024-02-21T05:42:22;0.77;;;0.50;;
4365;SDS011;2196;47.422;9.656;2024-02-21T05:44:49;0.80;;;0.80;;
4365;SDS011;2196;47.422;9.656;2024-02-21T05:47:17;0.40;;;0.40;;
4365;SDS011;2196;47.422;9.656;2024-02-21T05:49:45;1.53;;;0.80;;
4365;SDS011;2196;47.422;9.656;2024-02-21T05:52:14;0.97;;;0.73;;
4365;SDS011;2196;47.422;9.656;2024-02-21T05:54:41;1.53;;;0.37;;
4365;SDS011;2196;47.422;9.656;2024-02-21T05:57:08;0.30;;;0.30;;
4365;SDS011;2196;47.422;9.656;2024-02-21T05:59:37;0.60;;;0.37;;
4365;SDS011;2196;47.422;9.656;2024-02-21T06:02:07;0.20;;;0.20;;
4365;SDS011;2196;47.422;9.656;2024-02-21T06:04:34;0.53;;;0.40;;
4365;SDS011;2196;47.422;9.656;2024-02-21T06:07:01;0.30;;;0.30;;
4365;SDS011;2196;47.422;9.656;2024-02-21T06:09:29;0.30;;;0.30;;
4365;SDS011;2196;47.422;9.656;2024-02-21T06:11:57;1.50;;;0.50;;
4365;SDS011;2196;47.422;9.656;2024-02-21T06:14:24;1.10;;;0.30;;
4365;SDS011;2196;47.422;9.656;2024-02-21T06:16:50;0.30;;;0.30;;
4365;SDS011;2196;47.422;9.656;2024-02-21T06:19:17;0.33;;;0.23;;
4365;SDS011;2196;47.422;9.656;2024-02-21T06:21:44;0.80;;;0.30;;
4365;SDS011;2196;47.422;9.656;2024-02-21T06:24:12;2.97;;;0.60;;
4365;SDS011;2196;47.422;9.656;2024-02-21T06:26:40;0.50;;;0.20;;
4365;SDS011;2196;47.422;9.656;2024-02-21T06:29:07;2.10;;;0.50;;
4365;SDS011;2196;47.422;9.656;2024-02-21T06:31:34;0.60;;;0.20;;
4365;SDS011;2196;47.422;9.656;2024-02-21T06:34:02;0.20;;;0.20;;
4365;SDS011;2196;47.422;9.656;2024-02-21T06:36:29;1.73;;;0.20;;
4365;SDS011;2196;47.422;9.656;2024-02-21T06:38:56;0.20;;;0.20;;
4365;SDS011;2196;47.422;9.656;2024-02-21T06:41:23;3.00;;;0.40;;
4365;SDS011;2196;47.422;9.656;2024-02-21T06:43:51;1.50;;;0.37;;
4365;SDS011;2196;47.422;9.656;2024-02-21T06:46:24;0.20;;;0.20;;
4365;SDS011;2196;47.422;9.656;2024-02-21T06:48:53;0.30;;;0.30;;
4365;SDS011;2196;47.422;9.656;2024-02-21T06:51:21;1.97;;;0.23;;
4365;SDS011;2196;47.422;9.656;2024-02-21T06:53:48;0.87;;;0.50;;
4365;SDS011;2196;47.422;9.656;2024-02-21T06:56:15;1.80;;;1.60;;
4365;SDS011;2196;47.422;9.656;2024-02-21T06:58:42;3.23;;;0.97;;
4365;SDS011;2196;47.422;9.656;2024-02-21T07:01:10;1.20;;;0.83;;
4365;SDS011;2196;47.422;9.656;2024-02-21T07:03:37;1.50;;;0.70;;
4365;SDS011;2196;47.422;9.656;2024-02-21T07:06:04;0.40;;;0.40;;
4365;SDS011;2196;47.422;9.656;2024-02-21T07:08:31;0.93;;;0.93;;
4365;SDS011;2196;47.422;9.656;2024-02-21T07:10:58;0.60;;;0.60;;
4365;SDS011;2196;47.422;9.656;2024-02-21T07:13:25;0.80;;;0.70;;
4365;SDS011;2196;47.422;9.656;2024-02-21T07:15:52;0.97;;;0.60;;
4365;SDS011;2196;47.422;9.656;2024-02-21T07:18:20;1.37;;;0.80;;
4365;SDS011;2196;47.422;9.656;2024-02-21T07:20:47;1.33;;;1.07;;
4365;SDS011;2196;47.422;9.656;2024-02-21T07:23:14;2.00;;;0.90;;
4365;SDS011;2196;47.422;9.656;2024-02-21T07:25:41;2.67;;;0.80;;
4365;SDS011;2196;47.422;9.656;2024-02-21T07:28:08;1.33;;;1.23;;
4365;SDS011;2196;47.422;9.656;2024-02-21T07:30:35;1.40;;;0.97;;
4365;SDS011;2196;47.422;9.656;2024-02-21T07:33:02;2.07;;;0.87;;
4365;SDS011;2196;47.422;9.656;2024-02-21T07:35:31;0.70;;;0.70;;
4365;SDS011;2196;47.422;9.656;2024-02-21T07:37:58;2.17;;;1.13;;
4365;SDS011;2196;47.422;9.656;2024-02-21T07:40:25;1.30;;;0.73;;
4365;SDS011;2196;47.422;9.656;2024-02-21T07:42:52;1.60;;;0.50;;
4365;SDS011;2196;47.422;9.656;2024-02-21T07:45:19;1.17;;;0.40;;
4365;SDS011;2196;47.422;9.656;2024-02-21T07:47:49;0.30;;;0.30;;
4365;SDS011;2196;47.422;9.656;2024-02-21T07:50:16;0.57;;;0.50;;
4365;SDS011;2196;47.422;9.656;2024-02-21T07:52:44;1.37;;;0.40;;
4365;SDS011;2196;47.422;9.656;2024-02-21T07:55:11;2.00;;;0.53;;
4365;SDS011;2196;47.422;9.656;2024-02-21T07:57:38;6.53;;;0.50;;
4365;SDS011;2196;47.422;9.656;2024-02-21T08:00:06;0.57;;;0.40;;
4365;SDS011;2196;47.422;9.656;2024-02-21T08:02:34;0.70;;;0.50;;
4365;SDS011;2196;47.422;9.656;2024-02-21T08:05:03;13.10;;;0.60;;
4365;SDS011;2196;47.422;9.656;2024-02-21T08:07:31;0.40;;;0.40;;
4365;SDS011;2196;47.422;9.656;2024-02-21T08:10:00;0.43;;;0.43;;
4365;SDS011;2196;47.422;9.656;2024-02-21T08:12:27;1.37;;;0.50;;
4365;SDS011;2196;47.422;9.656;2024-02-21T08:14:54;1.63;;;0.60;;
4365;SDS011;2196;47.422;9.656;2024-02-21T08:17:21;0.50;;;0.50;;
4365;SDS011;2196;47.422;9.656;2024-02-21T08:19:47;2.33;;;1.43;;
4365;SDS011;2196;47.422;9.656;2024-02-21T08:22:15;2.00;;;1.00;;
4365;SDS011;2196;47.422;9.656;2024-02-21T08:24:42;1.90;;;0.90;;
4365;SDS011;2196;47.422;9.656;2024-02-21T08:27:10;3.37;;;0.37;;
4365;SDS011;2196;47.422;9.656;2024-02-21T08:29:37;1.17;;;0.73;;
4365;SDS011;2196;47.422;9.656;2024-02-21T08:32:04;0.90;;;0.50;;
4365;SDS011;2196;47.422;9.656;2024-02-21T08:34:31;0.60;;;0.40;;
4365;SDS011;2196;47.422;9.656;2024-02-21T08:36:59;3.20;;;0.60;;
4365;SDS011;2196;47.422;9.656;2024-02-21T08:39:26;0.10;;;0.10;;
4365;SDS011;2196;47.422;9.656;2024-02-21T08:41:53;0.93;;;0.83;;
4365;SDS011;2196;47.422;9.656;2024-02-21T08:44:23;3.00;;;0.53;;
4365;SDS011;2196;47.422;9.656;2024-02-21T08:46:51;0.40;;;0.40;;
4365;SDS011;2196;47.422;9.656;2024-02-21T08:49:17;0.50;;;0.40;;
4365;SDS011;2196;47.422;9.656;2024-02-21T08:51:45;0.87;;;0.40;;
4365;SDS011;2196;47.422;9.656;2024-02-21T08:54:12;0.33;;;0.20;;
4365;SDS011;2196;47.422;9.656;2024-02-21T08:56:39;1.60;;;0.20;;
4365;SDS011;2196;47.422;9.656;2024-02-21T08:59:06;0.37;;;0.20;;
4365;SDS011;2196;47.422;9.656;2024-02-21T09:01:34;3.10;;;0.10;;
4365;SDS011;2196;47.422;9.656;2024-02-21T09:04:02;0.40;;;0.20;;
4365;SDS011;2196;47.422;9.656;2024-02-21T09:06:30;0.20;;;0.20;;
4365;SDS011;2196;47.422;9.656;2024-02-21T09:08:58;0.53;;;0.10;;
4365;SDS011;2196;47.422;9.656;2024-02-21T09:11:25;0.20;;;0.13;;
4365;SDS011;2196;47.422;9.656;2024-02-21T09:13:53;0.30;;;0.30;;
4365;SDS011;2196;47.422;9.656;2024-02-21T09:16:20;0.27;;;0.10;;
4365;SDS011;2196;47.422;9.656;2024-02-21T09:18:52;3.33;;;0.10;;
4365;SDS011;2196;47.422;9.656;2024-02-21T09:21:28;1.60;;;0.20;;
4365;SDS011;2196;47.422;9.656;2024-02-21T09:23:59;0.60;;;0.20;;
4365;SDS011;2196;47.422;9.656;2024-02-21T09:26:27;0.40;;;0.10;;
4365;SDS011;2196;47.422;9.656;2024-02-21T09:28:55;0.13;;;0.13;;
4365;SDS011;2196;47.422;9.656;2024-02-21T09:31:22;0.10;;;0.10;;
4365;SDS011;2196;47.422;9.656;2024-02-21T09:33:49;0.10;;;0.10;;
4365;SDS011;2196;47.422;9.656;2024-02-21T09:36:18;1.70;;;0.17;;
4365;SDS011;2196;47.422;9.656;2024-02-21T09:38:46;1.30;;;0.20;;
4365;SDS011;2196;47.422;9.656;2024-02-21T09:41:15;0.20;;;0.20;;
4365;SDS011;2196;47.422;9.656;2024-02-21T09:43:43;0.63;;;0.20;;
4365;SDS011;2196;47.422;9.656;2024-02-21T09:46:13;0.50;;;0.10;;
4365;SDS011;2196;47.422;9.656;2024-02-21T09:48:48;0.60;;;0.60;;
4365;SDS011;2196;47.422;9.656;2024-02-21T09:51:20;0.13;;;0.13;;
4365;SDS011;2196;47.422;9.656;2024-02-21T09:53:48;0.20;;;0.20;;
4365;SDS011;2196;47.422;9.656;2024-02-21T09:56:15;0.20;;;0.20;;
4365;SDS011;2196;47.422;9.656;2024-02-21T09:58:43;0.97;;;0.30;;
4365;SDS011;2196;47.422;9.656;2024-02-21T10:01:10;0.60;;;0.60;;
4365;SDS011;2196;47.422;9.656;2024-02-21T10:03:37;3.87;;;0.80;;
4365;SDS011;2196;47.422;9.656;2024-02-21T10:06:04;1.50;;;0.30;;
4365;SDS011;2196;47.422;9.656;2024-02-21T10:08:33;2.00;;;0.30;;
4365;SDS011;2196;47.422;9.656;2024-02-21T10:11:00;0.37;;;0.37;;
4365;SDS011;2196;47.422;9.656;2024-02-21T10:13:29;0.30;;;0.30;;
4365;SDS011;2196;47.422;9.656;2024-02-21T10:16:03;1.33;;;0.30;;
4365;SDS011;2196;47.422;9.656;2024-02-21T10:18:32;1.13;;;0.27;;
4365;SDS011;2196;47.422;9.656;2024-02-21T10:21:01;1.07;;;0.30;;
4365;SDS011;2196;47.422;9.656;2024-02-21T10:23:28;0.30;;;0.20;;
4365;SDS011;2196;47.422;9.656;2024-02-21T10:26:05;0.73;;;0.40;;
4365;SDS011;2196;47.422;9.656;2024-02-21T10:28:33;1.63;;;1.30;;
4365;SDS011;2196;47.422;9.656;2024-02-21T10:31:00;1.53;;;1.30;;
4365;SDS011;2196;47.422;9.656;2024-02-21T10:33:27;2.30;;;1.23;;
4365;SDS011;2196;47.422;9.656;2024-02-21T10:36:05;1.40;;;1.30;;
4365;SDS011;2196;47.422;9.656;2024-02-21T10:38:33;1.53;;;1.30;;
4365;SDS011;2196;47.422;9.656;2024-02-21T10:41:00;3.07;;;1.40;;
4365;SDS011;2196;47.422;9.656;2024-02-21T10:43:30;1.03;;;1.03;;
4365;SDS011;2196;47.422;9.656;2024-02-21T10:45:59;2.07;;;1.20;;
4365;SDS011;2196;47.422;9.656;2024-02-21T10:48:29;1.57;;;1.30;;
4365;SDS011;2196;47.422;9.656;2024-02-21T10:51:01;4.00;;;0.90;;
4365;SDS011;2196;47.422;9.656;2024-02-21T10:53:34;2.33;;;0.97;;
4365;SDS011;2196;47.422;9.656;2024-02-21T10:56:05;1.47;;;1.47;;
4365;SDS011;2196;47.422;9.656;2024-02-21T10:58:35;0.97;;;0.87;;
4365;SDS011;2196;47.422;9.656;2024-02-21T11:01:03;1.57;;;1.17;;
4365;SDS011;2196;47.422;9.656;2024-02-21T11:03:30;1.30;;;1.03;;
4365;SDS011;2196;47.422;9.656;2024-02-21T11:05:58;1.97;;;1.20;;
4365;SDS011;2196;47.422;9.656;2024-02-21T11:08:25;2.63;;;1.20;;
4365;SDS011;2196;47.422;9.656;2024-02-21T11:10:56;2.73;;;1.10;;
4365;SDS011;2196;47.422;9.656;2024-02-21T11:13:29;2.83;;;1.10;;
4365;SDS011;2196;47.422;9.656;2024-02-21T11:16:06;1.17;;;0.90;;
4365;SDS011;2196;47.422;9.656;2024-02-21T11:18:34;2.83;;;1.07;;
4365;SDS011;2196;47.422;9.656;2024-02-21T11:21:02;3.03;;;0.83;;
4365;SDS011;2196;47.422;9.656;2024-02-21T11:23:30;0.93;;;0.93;;
4365;SDS011;2196;47.422;9.656;2024-02-21T11:26:03;2.63;;;1.20;;
4365;SDS011;2196;47.422;9.656;2024-02-21T11:28:31;2.97;;;1.03;;
4365;SDS011;2196;47.422;9.656;2024-02-21T11:31:07;0.90;;;0.90;;
4365;SDS011;2196;47.422;9.656;2024-02-21T11:33:35;2.87;;;0.90;;
4365;SDS011;2196;47.422;9.656;2024-02-21T11:36:02;2.20;;;1.37;;
4365;SDS011;2196;47.422;9.656;2024-02-21T11:38:30;2.23;;;1.20;;
4365;SDS011;2196;47.422;9.656;2024-02-21T11:40:57;1.03;;;0.90;;
4365;SDS011;2196;47.422;9.656;2024-02-21T11:43:24;1.70;;;1.07;;
4365;SDS011;2196;47.422;9.656;2024-02-21T11:45:58;3.33;;;1.00;;
4365;SDS011;2196;47.422;9.656;2024-02-21T11:48:27;0.97;;;0.97;;
4365;SDS011;2196;47.422;9.656;2024-02-21T11:50:55;2.00;;;1.07;;
4365;SDS011;2196;47.422;9.656;2024-02-21T11:53:22;1.33;;;0.90;;
4365;SDS011;2196;47.422;9.656;2024-02-21T11:55:52;1.37;;;0.73;;
4365;SDS011;2196;47.422;9.656;2024-02-21T11:58:20;1.90;;;0.83;;
4365;SDS011;2196;47.422;9.656;2024-02-21T12:00:47;1.03;;;0.90;;
4365;SDS011;2196;47.422;9.656;2024-02-21T12:03:14;2.50;;;1.03;;
4365;SDS011;2196;47.422;9.656;2024-02-21T12:05:43;2.07;;;1.07;;
4365;SDS011;2196;47.422;9.656;2024-02-21T12:08:11;1.50;;;0.80;;
4365;SDS011;2196;47.422;9.656;2024-02-21T12:10:38;0.87;;;0.87;;
4365;SDS011;2196;47.422;9.656;2024-02-21T12:15:51;0.80;;;0.77;;
4365;SDS011;2196;47.422;9.656;2024-02-21T12:18:18;0.60;;;0.60;;
4365;SDS011;2196;47.422;9.656;2024-02-21T12:20:49;1.80;;;0.87;;
4365;SDS011;2196;47.422;9.656;2024-02-21T12:23:18;1.67;;;0.87;;
4365;SDS011;2196;47.422;9.656;2024-02-21T12:25:45;2.57;;;1.00;;
4365;SDS011;2196;47.422;9.656;2024-02-21T12:28:11;2.00;;;1.00;;
4365;SDS011;2196;47.422;9.656;2024-02-21T12:30:38;1.27;;;1.17;;
4365;SDS011;2196;47.422;9.656;2024-02-21T12:33:05;1.07;;;0.90;;
4365;SDS011;2196;47.422;9.656;2024-02-21T12:35:32;2.73;;;1.33;;
4365;SDS011;2196;47.422;9.656;2024-02-21T12:38:01;1.30;;;1.20;;
4365;SDS011;2196;47.422;9.656;2024-02-21T12:40:28;0.80;;;0.80;;
4365;SDS011;2196;47.422;9.656;2024-02-21T12:42:57;2.00;;;1.10;;
4365;SDS011;2196;47.422;9.656;2024-02-21T12:45:25;1.30;;;0.93;;
4365;SDS011;2196;47.422;9.656;2024-02-21T12:47:52;1.70;;;1.13;;
4365;SDS011;2196;47.422;9.656;2024-02-21T12:50:19;1.27;;;1.27;;
4365;SDS011;2196;47.422;9.656;2024-02-21T12:52:47;3.80;;;1.13;;
4365;SDS011;2196;47.422;9.656;2024-02-21T12:55:17;3.23;;;1.17;;
4365;SDS011;2196;47.422;9.656;2024-02-21T12:57:44;1.03;;;0.73;;
4365;SDS011;2196;47.422;9.656;2024-02-21T13:00:11;1.30;;;1.10;;
4365;SDS011;2196;47.422;9.656;2024-02-21T13:02:39;2.83;;;1.30;;
4365;SDS011;2196;47.422;9.656;2024-02-21T13:05:06;1.10;;;1.10;;
4365;SDS011;2196;47.422;9.656;2024-02-21T13:07:36;4.33;;;1.90;;
4365;SDS011;2196;47.422;9.656;2024-02-21T13:10:03;1.60;;;1.03;;
4365;SDS011;2196;47.422;9.656;2024-02-21T13:12:35;2.00;;;1.10;;
4365;SDS011;2196;47.422;9.656;2024-02-21T13:15:01;2.73;;;1.30;;
4365;SDS011;2196;47.422;9.656;2024-02-21T13:17:32;3.03;;;1.43;;
4365;SDS011;2196;47.422;9.656;2024-02-21T13:19:59;1.10;;;0.60;;
4365;SDS011;2196;47.422;9.656;2024-02-21T13:22:26;0.60;;;0.60;;
4365;SDS011;2196;47.422;9.656;2024-02-21T13:24:53;0.80;;;0.67;;
4365;SDS011;2196;47.422;9.656;2024-02-21T13:27:20;2.67;;;0.80;;
4365;SDS011;2196;47.422;9.656;2024-02-21T13:29:48;1.13;;;0.80;;
4365;SDS011;2196;47.422;9.656;2024-02-21T13:32:15;2.63;;;0.70;;
4365;SDS011;2196;47.422;9.656;2024-02-21T13:34:42;2.47;;;0.60;;
4365;SDS011;2196;47.422;9.656;2024-02-21T13:37:09;0.50;;;0.40;;
4365;SDS011;2196;47.422;9.656;2024-02-21T13:39:36;1.00;;;0.40;;
4365;SDS011;2196;47.422;9.656;2024-02-21T13:42:05;1.17;;;0.30;;
4365;SDS011;2196;47.422;9.656;2024-02-21T13:44:33;3.70;;;0.40;;
4365;SDS011;2196;47.422;9.656;2024-02-21T13:47:01;0.73;;;0.40;;
4365;SDS011;2196;47.422;9.656;2024-02-21T13:49:30;0.47;;;0.30;;
4365;SDS011;2196;47.422;9.656;2024-02-21T13:51:57;0.30;;;0.20;;
4365;SDS011;2196;47.422;9.656;2024-02-21T13:54:25;0.47;;;0.20;;
4365;SDS011;2196;47.422;9.656;2024-02-21T13:56:52;1.03;;;0.50;;
4365;SDS011;2196;47.422;9.656;2024-02-21T13:59:19;0.70;;;0.57;;
4365;SDS011;2196;47.422;9.656;2024-02-21T14:01:46;1.30;;;0.30;;
4365;SDS011;2196;47.422;9.656;2024-02-21T14:04:14;0.40;;;0.40;;
4365;SDS011;2196;47.422;9.656;2024-02-21T14:06:41;0.80;;;0.20;;
4365;SDS011;2196;47.422;9.656;2024-02-21T14:09:08;1.03;;;1.00;;
4365;SDS011;2196;47.422;9.656;2024-02-21T14:11:36;1.40;;;1.03;;
4365;SDS011;2196;47.422;9.656;2024-02-21T14:14:05;0.53;;;0.43;;
4365;SDS011;2196;47.422;9.656;2024-02-21T14:16:32;0.40;;;0.40;;
4365;SDS011;2196;47.422;9.656;2024-02-21T14:18:58;0.43;;;0.33;;
4365;SDS011;2196;47.422;9.656;2024-02-21T14:21:27;0.73;;;0.53;;
4365;SDS011;2196;47.422;9.656;2024-02-21T14:23:54;2.60;;;1.23;;
4365;SDS011;2196;47.422;9.656;2024-02-21T14:26:22;1.80;;;0.50;;
4365;SDS011;2196;47.422;9.656;2024-02-21T14:28:48;2.03;;;1.93;;
4365;SDS011;2196;47.422;9.656;2024-02-21T14:31:15;0.50;;;0.50;;
4365;SDS011;2196;47.422;9.656;2024-02-21T14:33:42;1.17;;;0.47;;
4365;SDS011;2196;47.422;9.656;2024-02-21T14:36:11;0.97;;;0.60;;
4365;SDS011;2196;47.422;9.656;2024-02-21T14:38:39;2.83;;;1.00;;
4365;SDS011;2196;47.422;9.656;2024-02-21T14:41:06;4.13;;;3.90;;
4365;SDS011;2196;47.422;9.656;2024-02-21T14:43:33;2.17;;;1.57;;
4365;SDS011;2196;47.422;9.656;2024-02-21T14:46:00;2.53;;;0.80;;
4365;SDS011;2196;47.422;9.656;2024-02-21T14:48:29;1.80;;;0.83;;
4365;SDS011;2196;47.422;9.656;2024-02-21T14:50:57;2.57;;;1.13;;
4365;SDS011;2196;47.422;9.656;2024-02-21T14:53:24;1.90;;;1.80;;
4365;SDS011;2196;47.422;9.656;2024-02-21T14:55:52;1.97;;;1.83;;
4365;SDS011;2196;47.422;9.656;2024-02-21T14:58:20;0.83;;;0.83;;
4365;SDS011;2196;47.422;9.656;2024-02-21T15:00:47;1.83;;;1.70;;
4365;SDS011;2196;47.422;9.656;2024-02-21T15:03:15;3.03;;;2.80;;
4365;SDS011;2196;47.422;9.656;2024-02-21T15:05:44;1.60;;;0.90;;
4365;SDS011;2196;47.422;9.656;2024-02-21T15:08:12;1.73;;;0.90;;
4365;SDS011;2196;47.422;9.656;2024-02-21T15:10:42;2.17;;;1.63;;
4365;SDS011;2196;47.422;9.656;2024-02-21T15:13:10;4.83;;;4.53;;
4365;SDS011;2196;47.422;9.656;2024-02-21T15:15:38;4.47;;;3.23;;
4365;SDS011;2196;47.422;9.656;2024-02-21T15:18:05;5.43;;;3.47;;
4365;SDS011;2196;47.422;9.656;2024-02-21T15:20:31;6.37;;;6.03;;
4365;SDS011;2196;47.422;9.656;2024-02-21T15:22:59;2.50;;;2.40;;